Briefing drone pour Loriol-sur-drome

Rechercher une autre localisation

Conditions de vol :


Nous sommes le : Lundi 18 janvier 2021
Il est 10:26 UTC (11:26 LT)

Lever de soleil : 06:46 UTC (07:46 LT)
Coucher de soleil : 16:56 UTC (17:56 LT)

Météo

L'essentiel des conditions de vol

VIGILANCE MÉTÉO FRANCE - Drôme (26)
Pas de vigilances particulieres
CARTES DES FRONTS
METAR de LFLU
LFLU 181000Z AUTO 01012KT 9999 FEW048 05/02 Q1028

Date d'émission: 18/01/2021
Heure d'émission: 10:00 UTC
Vent: 010° pour 12 KT (22 km/h)
Visibilité horizontale: > 10 km
Plafond :
- Peu de nuages à 4800ft (1463m)
Température: 5 °C
Point de rosée: 2 °C
Humidité: 81%
Pression (QNH): 1028 hPa
Prévision 24h pour Valence (13 km)
Vent : 292° pour 0 KT (1 km/h)
Temperature Maxi: -1 °C
Temperature Min: -1 °C
Humidité : 94%
Condition : Peu nuageux



Warning: count(): Parameter must be an array or an object that implements Countable in /homepages/6/d509196549/htdocs/droneoxygene/briefing.php on line 743
WEBCAM POUR LORIOL-SUR-DROME

Réglementation

Voler en sécurité

CARTES AERONAUTIQUE 1/500.000
CARTES VAC (LFLU)
SUP AIP




Chargement des AIP...
NOTAM (LORIOL-SUR-DROME + Terrain à proximité / FIR )




Chargement des NOTAMS...
CONTACT PREFECTURE 26
Drôme (26) : ddt-sdsr@drome.gouv.fr


Avertissement : Les données mises à disposition sont indicatives. Oxygène Drone ne pourra être tenu responsable de dégâts causés aux biens et aux personnes.